• Join FlightAware (Why Join?)
  • Login
  • US Flag 
06:25PM EDT


 

Airport Tracker/Info


-or-


 

Live Flight TrackerFlight Track Log ✈ N727NE ✈ 23-Jul-2013 ✈ 14G - KMGY

Flight Track Log - Related Links

Times and Time Zones

All times are in EDT time to prevent confusion due to time zone crossing. See the N727NE flight status page for this flight to view local times or setup timezone preferences in your user account.

Time Position Orientation Groundspeed Altitude Reporting Facility
EDT Latitude Longitude Course Direction KTS MPH feet Rate Location/Type
03:35PM 41.2608 -83.1094 207° Southwest 129 148 8,000  Level Indianapolis Center
03:36PM 41.2242 -83.1339 207° Southwest 126 145 8,100 60 Climbing Indianapolis Center
03:37PM 41.1919 -83.1536 205° Southwest 126 145 8,200  Climbing Indianapolis Center
03:38PM 41.1606 -83.1747 207° Southwest 126 145 8,100 -60 Descending Indianapolis Center
03:39PM 41.1281 -83.1972 208° Southwest 130 150 8,100  Level Indianapolis Center
03:40PM 41.0964 -83.2178 206° Southwest 128 147 8,100  Level Indianapolis Center
03:41PM 41.0647 -83.2400 208° Southwest 127 146 8,100  Level Indianapolis Center
03:42PM 41.0333 -83.2619 208° Southwest 126 145 8,100 -60 Level Indianapolis Center
03:43PM 41.0064 -83.2925 221° Southwest 126 145 8,000 -60 Descending Indianapolis Center
03:44PM 40.9769 -83.3261 221° Southwest 120 138 8,000  Level Indianapolis Center
03:45PM 40.9508 -83.3553 220° Southwest 120 138 8,000  Level Indianapolis Center
03:46PM 40.9267 -83.3861 224° Southwest 120 138 8,000  Level Indianapolis Center
03:47PM 40.9014 -83.4147 221° Southwest 120 138 8,100  Climbing Indianapolis Center
03:48PM 40.8744 -83.4419 217° Southwest 120 138 8,100  Level Indianapolis Center
03:49PM 40.8458 -83.4681 215° Southwest 124 143 8,100  Level Indianapolis Center
03:50PM 40.8186 -83.4950 217° Southwest 122 140 8,100  Level Indianapolis Center
03:51PM 40.7864 -83.5192 210° Southwest 121 139 8,100  Level Indianapolis Center
03:52PM 40.7553 -83.5353 201° Southwest 118 136 8,100  Level Indianapolis Center
03:53PM 40.7242 -83.5575 208° Southwest 125 144 8,100 -60 Level Indianapolis Center
03:54PM 40.6939 -83.5758 205° Southwest 120 138 8,000  Descending Indianapolis Center
03:55PM 40.6633 -83.5944 205° Southwest 120 138 8,100  Climbing Indianapolis Center
03:56PM 40.6258 -83.6169 204° Southwest 126 145 8,000  Descending Indianapolis Center
03:57PM 40.5931 -83.6394 208° Southwest 126 145 8,200  Climbing Indianapolis Center
03:58PM 40.5661 -83.6583 208° Southwest 120 138 8,100 -60 Descending Indianapolis Center
03:59PM 40.5344 -83.6767 204° Southwest 122 140 8,100 60 Level Indianapolis Center
04:00PM 40.5042 -83.6956 205° Southwest 121 139 8,300  Climbing Indianapolis Center
04:01PM 40.4672 -83.7167 203° Southwest 130 150 8,100 -120 Descending Indianapolis Center
04:02PM 40.4367 -83.7347 204° Southwest 130 150 8,100  Level Indianapolis Center
04:04PM 40.4014 -83.7553 204° Southwest 129 148 8,200  Climbing Indianapolis Center
04:05PM 40.3647 -83.7758 203° Southwest 129 148 8,100  Descending Indianapolis Center
04:06PM 40.3325 -83.7958 205° Southwest 128 147 8,200  Climbing Indianapolis Center
04:07PM 40.2933 -83.8186 204° Southwest 130 150 8,200 -60 Level Indianapolis Center
04:08PM 40.2672 -83.8344 205° Southwest 128 147 8,100 -60 Descending Indianapolis Center
04:09PM 40.2328 -83.8547 204° Southwest 130 150 8,100 60 Level Indianapolis Center
04:11PM 40.1614 -83.8944 203° Southwest 131 151 8,300  Climbing Indianapolis Center
04:12PM 40.1297 -83.9161 208° Southwest 129 148 8,200 -120 Descending Indianapolis Center
04:13PM 40.1003 -83.9358 207° Southwest 131 151 8,100 -60 Descending Indianapolis Center
04:14PM 40.0664 -83.9572 206° Southwest 135 155 8,100 -180 Level Indianapolis Center
04:15PM 40.0306 -83.9783 204° Southwest 142 163 7,800 -420 Descending Indianapolis Center
04:16PM 39.9928 -83.9989 203° Southwest 150 173 7,300 -540 Descending Indianapolis Center
04:17PM 39.9547 -84.0197 203° Southwest 148 170 6,800 -480 Descending Indianapolis Center
04:18PM 39.9142 -84.0453 206° Southwest 152 175 6,400 -480 Descending Indianapolis Center
04:19PM 39.8742 -84.0656 201° Southwest 151 174 5,900 -540 Descending Indianapolis Center
04:20PM 39.8342 -84.0858 201° Southwest 156 180 5,400 -600 Descending Indianapolis Center
04:21PM 39.7961 -84.1089 205° Southwest 153 176 4,800 -600 Descending Indianapolis Center
04:22PM 39.7531 -84.1369 207° Southwest 151 174 4,200 -420 Descending Indianapolis Center
04:23PM 39.7044 -84.1639 203° Southwest 152 175 3,800 -360 Descending Indianapolis Center
04:25PM 39.6621 -84.1786 195° South  Level FlightAware Approximate
04:32PM 39.5833 -84.2167 218° Southwest  Level FlightAware Approximate
04:33PM 39.5890 -84.2249 218° Southwest  Level Estimated